TFM - Tactical Decision Aid
ID: Runway Winds: CIG/VIS Threshold:

KPHX - Phoenix/Sky Harbor, AZ, US

Updated at: 1115 UTC 15 Jul 2020
Latest TAF at: 1007 UTC 15 Jul 2020

TAF Board

Time1051Z 15/12Z 15/13Z 15/14Z 15/15Z 15/16Z 15/17Z 15/18Z 15/19Z 15/20Z 15/21Z 15/22Z 15/23Z 16/00Z>>
Type OBS PRVL PRVL PRVL PRVL PRVL PRVL PRVL PRVL PRVL PRVL PRVL PRVL PRVL
VIS 10 >6 >6 >6 >6 >6 >6 >6 >6 >6 >6 >6 >6 >6
CIG -- -- -- -- -- -- -- -- -- -- -- -- -- --
Cover CLR FEW FEW FEW FEW FEW FEW SCT SCT SCT SCT SCT SCT SCT
FltCat VFR VFR VFR VFR VFR VFR VFR VFR VFR VFR VFR VFR VFR VFR
WX -- -- -- -- -- -- -- -- -- -- -- -- -- --
WDir 160 100 100 100 100 100 100 180 180 180 260 260 260 260
WSpd 5 5 5 5 5 5 5 6 6 6 10 10 10 10
WGst -- -- -- -- -- -- -- -- -- -- -- -- -- --

TDA Impact Legend

  None Marginal Slight Moderate High
Visibility (sm) >5 3≤X≤5 1.25≤X<3 0.5≤X<1.25 <0.5
Ceiling (100 ft) >30 10≤X≤30 4≤X<10 2≤X<4 <2
Wind Speed (kt) <15 15≤X<25 25≤X<30 ≥30
Wind Gust (kt) <15 15≤X<25 25≤X<35 ≥35
Weather No Wx Reported VCTS -TS,-FZRA TS,FZRA +TS,+FZRA
TAF
KPHX 151007Z 1510/1612 24007KT P6SM FEW120 FEW250
  FM151200 10005KT P6SM FEW250
  FM151800 18006KT P6SM SCT250
  FM152100 26010KT P6SM FEW120 SCT250
  FM160900 10006KT P6SM FEW120 SCT250


METAR
KPHX 151051Z 16005KT 10SM CLR 33/12 A2980 RMK AO2 SLP068 T03330122
KPHX 150951Z 29007KT 10SM CLR 36/11 A2978 RMK AO2 SLP061 T03560111
KPHX 150851Z 29005KT 10SM CLR 36/11 A2977 RMK AO2 SLP056 T03610106 50000
KPHX 150751Z 25005KT 10SM CLR 36/11 A2977 RMK AO2 SLP056 T03610106

Radar Display
Forecast Discussion